sensor_id;sensor_type;location;lat;lon;timestamp;temperature;humidity
44513;DHT22;30219;50.588;9.504;2022-10-16T00:01:25;15.40;99.90
44513;DHT22;30219;50.588;9.504;2022-10-16T00:03:51;15.40;99.90
44513;DHT22;30219;50.588;9.504;2022-10-16T00:06:19;15.40;99.90
44513;DHT22;30219;50.588;9.504;2022-10-16T00:08:46;15.30;99.90
44513;DHT22;30219;50.588;9.504;2022-10-16T00:11:17;15.30;99.90
44513;DHT22;30219;50.588;9.504;2022-10-16T00:13:45;15.30;99.90
44513;DHT22;30219;50.588;9.504;2022-10-16T00:16:12;15.20;99.90
44513;DHT22;30219;50.588;9.504;2022-10-16T00:18:38;15.20;99.90
44513;DHT22;30219;50.588;9.504;2022-10-16T00:21:13;15.10;99.90
44513;DHT22;30219;50.588;9.504;2022-10-16T00:23:39;15.10;99.90
44513;DHT22;30219;50.588;9.504;2022-10-16T00:26:08;15.00;99.90
44513;DHT22;30219;50.588;9.504;2022-10-16T00:28:34;15.00;99.90
44513;DHT22;30219;50.588;9.504;2022-10-16T00:31:08;15.00;99.90
44513;DHT22;30219;50.588;9.504;2022-10-16T00:33:35;15.10;99.90
44513;DHT22;30219;50.588;9.504;2022-10-16T00:36:02;15.10;99.90
44513;DHT22;30219;50.588;9.504;2022-10-16T00:38:28;15.00;99.90
44513;DHT22;30219;50.588;9.504;2022-10-16T00:40:54;15.00;99.90
44513;DHT22;30219;50.588;9.504;2022-10-16T00:43:51;15.00;99.90
44513;DHT22;30219;50.588;9.504;2022-10-16T00:46:27;15.10;99.90
44513;DHT22;30219;50.588;9.504;2022-10-16T00:49:15;15.00;99.90
44513;DHT22;30219;50.588;9.504;2022-10-16T00:51:50;15.10;99.90
44513;DHT22;30219;50.588;9.504;2022-10-16T00:54:23;15.10;99.90
44513;DHT22;30219;50.588;9.504;2022-10-16T00:56:50;15.10;99.90
44513;DHT22;30219;50.588;9.504;2022-10-16T00:59:25;15.20;99.90
44513;DHT22;30219;50.588;9.504;2022-10-16T01:01:52;15.20;99.90
44513;DHT22;30219;50.588;9.504;2022-10-16T01:04:18;15.20;99.90
44513;DHT22;30219;50.588;9.504;2022-10-16T01:15:15;15.10;99.90
44513;DHT22;30219;50.588;9.504;2022-10-16T01:17:57;15.10;99.90
44513;DHT22;30219;50.588;9.504;2022-10-16T01:20:37;15.10;99.90
44513;DHT22;30219;50.588;9.504;2022-10-16T01:23:21;15.10;99.90
44513;DHT22;30219;50.588;9.504;2022-10-16T01:26:12;15.10;99.90
44513;DHT22;30219;50.588;9.504;2022-10-16T01:28:55;15.10;99.90
44513;DHT22;30219;50.588;9.504;2022-10-16T01:31:22;15.10;99.90
44513;DHT22;30219;50.588;9.504;2022-10-16T01:34:05;15.10;99.90
44513;DHT22;30219;50.588;9.504;2022-10-16T01:36:39;15.10;99.90
44513;DHT22;30219;50.588;9.504;2022-10-16T01:39:09;15.10;99.90
44513;DHT22;30219;50.588;9.504;2022-10-16T01:41:43;15.10;99.90
44513;DHT22;30219;50.588;9.504;2022-10-16T01:44:21;15.20;99.90
44513;DHT22;30219;50.588;9.504;2022-10-16T01:46:50;15.20;99.90
44513;DHT22;30219;50.588;9.504;2022-10-16T01:49:17;15.10;99.90
44513;DHT22;30219;50.588;9.504;2022-10-16T01:51:47;15.20;99.90
44513;DHT22;30219;50.588;9.504;2022-10-16T01:54:14;15.20;99.90
44513;DHT22;30219;50.588;9.504;2022-10-16T01:56:42;15.20;99.90
44513;DHT22;30219;50.588;9.504;2022-10-16T01:59:14;15.20;99.90
44513;DHT22;30219;50.588;9.504;2022-10-16T02:01:42;15.20;99.90
44513;DHT22;30219;50.588;9.504;2022-10-16T02:04:24;15.20;99.90
44513;DHT22;30219;50.588;9.504;2022-10-16T02:06:52;15.00;99.90
44513;DHT22;30219;50.588;9.504;2022-10-16T02:09:18;14.90;99.90
44513;DHT22;30219;50.588;9.504;2022-10-16T02:11:44;14.90;99.90
44513;DHT22;30219;50.588;9.504;2022-10-16T02:14:10;14.90;99.90
44513;DHT22;30219;50.588;9.504;2022-10-16T02:16:41;15.00;99.90
44513;DHT22;30219;50.588;9.504;2022-10-16T02:19:08;15.00;99.90
44513;DHT22;30219;50.588;9.504;2022-10-16T02:21:44;15.10;99.90
44513;DHT22;30219;50.588;9.504;2022-10-16T02:29:55;15.00;99.90
44513;DHT22;30219;50.588;9.504;2022-10-16T02:32:26;15.00;99.90
44513;DHT22;30219;50.588;9.504;2022-10-16T02:34:56;15.00;99.90
44513;DHT22;30219;50.588;9.504;2022-10-16T02:37:23;15.00;99.90
44513;DHT22;30219;50.588;9.504;2022-10-16T02:39:49;14.90;99.90
44513;DHT22;30219;50.588;9.504;2022-10-16T02:42:17;14.90;99.90
44513;DHT22;30219;50.588;9.504;2022-10-16T02:44:43;14.90;99.90
44513;DHT22;30219;50.588;9.504;2022-10-16T02:47:09;15.00;99.90
44513;DHT22;30219;50.588;9.504;2022-10-16T02:49:34;15.00;99.90
44513;DHT22;30219;50.588;9.504;2022-10-16T02:52:00;14.90;99.90
44513;DHT22;30219;50.588;9.504;2022-10-16T02:54:26;15.00;99.90
44513;DHT22;30219;50.588;9.504;2022-10-16T02:56:51;14.90;99.90
44513;DHT22;30219;50.588;9.504;2022-10-16T02:59:17;14.80;99.90
44513;DHT22;30219;50.588;9.504;2022-10-16T03:01:43;14.80;99.90
44513;DHT22;30219;50.588;9.504;2022-10-16T03:04:08;14.80;99.90
44513;DHT22;30219;50.588;9.504;2022-10-16T03:06:34;14.80;99.90
44513;DHT22;30219;50.588;9.504;2022-10-16T03:09:00;14.80;99.90
44513;DHT22;30219;50.588;9.504;2022-10-16T03:11:25;14.70;99.90
44513;DHT22;30219;50.588;9.504;2022-10-16T03:13:51;14.80;99.90
44513;DHT22;30219;50.588;9.504;2022-10-16T03:16:17;14.80;99.90
44513;DHT22;30219;50.588;9.504;2022-10-16T03:18:43;14.70;99.90
44513;DHT22;30219;50.588;9.504;2022-10-16T03:21:08;14.70;99.90
44513;DHT22;30219;50.588;9.504;2022-10-16T03:23:34;14.70;99.90
44513;DHT22;30219;50.588;9.504;2022-10-16T03:25:59;14.80;99.90
44513;DHT22;30219;50.588;9.504;2022-10-16T03:28:25;14.80;99.90
44513;DHT22;30219;50.588;9.504;2022-10-16T03:30:50;14.80;99.90
44513;DHT22;30219;50.588;9.504;2022-10-16T03:33:16;14.80;99.90
44513;DHT22;30219;50.588;9.504;2022-10-16T03:35:42;14.70;99.90
44513;DHT22;30219;50.588;9.504;2022-10-16T03:38:07;14.50;99.90
44513;DHT22;30219;50.588;9.504;2022-10-16T03:40:33;14.50;99.90
44513;DHT22;30219;50.588;9.504;2022-10-16T03:42:59;14.50;99.90
44513;DHT22;30219;50.588;9.504;2022-10-16T03:45:24;14.60;99.90
44513;DHT22;30219;50.588;9.504;2022-10-16T03:47:50;14.70;99.90
44513;DHT22;30219;50.588;9.504;2022-10-16T03:50:16;14.80;99.90
44513;DHT22;30219;50.588;9.504;2022-10-16T03:52:41;14.80;99.90
44513;DHT22;30219;50.588;9.504;2022-10-16T03:55:07;14.80;99.90
44513;DHT22;30219;50.588;9.504;2022-10-16T03:57:33;14.90;99.90
44513;DHT22;30219;50.588;9.504;2022-10-16T03:59:58;15.00;99.90
44513;DHT22;30219;50.588;9.504;2022-10-16T04:02:24;14.90;99.90
44513;DHT22;30219;50.588;9.504;2022-10-16T04:04:50;14.90;99.90
44513;DHT22;30219;50.588;9.504;2022-10-16T04:07:15;14.90;99.90
44513;DHT22;30219;50.588;9.504;2022-10-16T04:09:41;14.90;99.90
44513;DHT22;30219;50.588;9.504;2022-10-16T04:12:07;14.90;99.90
44513;DHT22;30219;50.588;9.504;2022-10-16T04:14:32;15.00;99.90
44513;DHT22;30219;50.588;9.504;2022-10-16T04:16:58;15.00;99.90
44513;DHT22;30219;50.588;9.504;2022-10-16T04:19:24;15.00;99.90
44513;DHT22;30219;50.588;9.504;2022-10-16T04:21:49;15.00;99.90
44513;DHT22;30219;50.588;9.504;2022-10-16T04:24:15;15.00;99.90
44513;DHT22;30219;50.588;9.504;2022-10-16T04:26:40;15.00;99.90
44513;DHT22;30219;50.588;9.504;2022-10-16T04:29:06;15.00;99.90
44513;DHT22;30219;50.588;9.504;2022-10-16T04:31:32;15.00;99.90
44513;DHT22;30219;50.588;9.504;2022-10-16T04:33:58;14.90;99.90
44513;DHT22;30219;50.588;9.504;2022-10-16T04:36:23;14.90;99.90
44513;DHT22;30219;50.588;9.504;2022-10-16T04:38:49;14.90;99.90
44513;DHT22;30219;50.588;9.504;2022-10-16T04:41:15;14.80;99.90
44513;DHT22;30219;50.588;9.504;2022-10-16T04:43:40;14.60;99.90
44513;DHT22;30219;50.588;9.504;2022-10-16T04:46:06;14.60;99.90
44513;DHT22;30219;50.588;9.504;2022-10-16T04:48:32;14.60;99.90
44513;DHT22;30219;50.588;9.504;2022-10-16T04:50:58;14.60;99.90
44513;DHT22;30219;50.588;9.504;2022-10-16T04:53:23;14.60;99.90
44513;DHT22;30219;50.588;9.504;2022-10-16T04:55:50;14.60;99.90
44513;DHT22;30219;50.588;9.504;2022-10-16T04:58:16;14.60;99.90
44513;DHT22;30219;50.588;9.504;2022-10-16T05:00:41;14.50;99.90
44513;DHT22;30219;50.588;9.504;2022-10-16T05:03:07;14.50;99.90
44513;DHT22;30219;50.588;9.504;2022-10-16T05:05:34;14.50;99.90
44513;DHT22;30219;50.588;9.504;2022-10-16T05:08:00;14.40;99.90
44513;DHT22;30219;50.588;9.504;2022-10-16T05:10:26;14.30;99.90
44513;DHT22;30219;50.588;9.504;2022-10-16T05:12:52;14.30;99.90
44513;DHT22;30219;50.588;9.504;2022-10-16T05:15:18;14.30;99.90
44513;DHT22;30219;50.588;9.504;2022-10-16T05:17:44;14.30;99.90
44513;DHT22;30219;50.588;9.504;2022-10-16T05:20:09;14.20;99.90
44513;DHT22;30219;50.588;9.504;2022-10-16T05:22:35;14.20;99.90
44513;DHT22;30219;50.588;9.504;2022-10-16T05:25:01;14.20;99.90
44513;DHT22;30219;50.588;9.504;2022-10-16T05:27:26;14.20;99.90
44513;DHT22;30219;50.588;9.504;2022-10-16T05:29:52;14.10;99.90
44513;DHT22;30219;50.588;9.504;2022-10-16T05:32:18;14.10;99.90
44513;DHT22;30219;50.588;9.504;2022-10-16T05:34:44;14.10;99.90
44513;DHT22;30219;50.588;9.504;2022-10-16T05:37:10;14.10;99.90
44513;DHT22;30219;50.588;9.504;2022-10-16T05:39:37;14.00;99.90
44513;DHT22;30219;50.588;9.504;2022-10-16T05:42:03;14.00;99.90
44513;DHT22;30219;50.588;9.504;2022-10-16T05:44:29;13.90;99.90
44513;DHT22;30219;50.588;9.504;2022-10-16T05:46:54;13.80;99.90
44513;DHT22;30219;50.588;9.504;2022-10-16T05:49:20;13.80;99.90
44513;DHT22;30219;50.588;9.504;2022-10-16T05:51:46;13.80;99.90
44513;DHT22;30219;50.588;9.504;2022-10-16T05:54:11;13.90;99.90
44513;DHT22;30219;50.588;9.504;2022-10-16T05:56:37;13.90;99.90
44513;DHT22;30219;50.588;9.504;2022-10-16T05:59:05;14.00;99.90
44513;DHT22;30219;50.588;9.504;2022-10-16T06:01:32;14.00;99.90
44513;DHT22;30219;50.588;9.504;2022-10-16T06:03:57;14.00;99.90
44513;DHT22;30219;50.588;9.504;2022-10-16T06:06:25;14.00;99.90
44513;DHT22;30219;50.588;9.504;2022-10-16T06:08:52;14.00;99.90
44513;DHT22;30219;50.588;9.504;2022-10-16T06:11:25;14.00;99.90
44513;DHT22;30219;50.588;9.504;2022-10-16T06:13:52;14.10;99.90
44513;DHT22;30219;50.588;9.504;2022-10-16T06:16:18;14.00;99.90
44513;DHT22;30219;50.588;9.504;2022-10-16T06:18:44;14.00;99.90
44513;DHT22;30219;50.588;9.504;2022-10-16T06:21:14;14.10;99.90
44513;DHT22;30219;50.588;9.504;2022-10-16T06:23:41;14.10;99.90
44513;DHT22;30219;50.588;9.504;2022-10-16T06:26:07;14.10;99.90
44513;DHT22;30219;50.588;9.504;2022-10-16T06:28:33;14.10;99.90
44513;DHT22;30219;50.588;9.504;2022-10-16T06:31:00;14.20;99.90
44513;DHT22;30219;50.588;9.504;2022-10-16T06:33:26;14.20;99.90
44513;DHT22;30219;50.588;9.504;2022-10-16T06:35:52;14.20;99.90
44513;DHT22;30219;50.588;9.504;2022-10-16T06:38:17;14.30;99.90
44513;DHT22;30219;50.588;9.504;2022-10-16T06:40:43;14.30;99.90
44513;DHT22;30219;50.588;9.504;2022-10-16T06:43:09;14.30;99.90
44513;DHT22;30219;50.588;9.504;2022-10-16T06:45:34;14.30;99.90
44513;DHT22;30219;50.588;9.504;2022-10-16T06:48:00;14.40;99.90
44513;DHT22;30219;50.588;9.504;2022-10-16T06:50:25;14.40;99.90
44513;DHT22;30219;50.588;9.504;2022-10-16T06:52:51;14.50;99.90
44513;DHT22;30219;50.588;9.504;2022-10-16T06:55:16;14.60;99.90
44513;DHT22;30219;50.588;9.504;2022-10-16T06:57:43;14.60;99.90
44513;DHT22;30219;50.588;9.504;2022-10-16T07:00:09;14.60;99.90
44513;DHT22;30219;50.588;9.504;2022-10-16T07:02:35;14.70;99.90
44513;DHT22;30219;50.588;9.504;2022-10-16T07:05:00;14.80;99.90
44513;DHT22;30219;50.588;9.504;2022-10-16T07:07:26;14.90;99.90
44513;DHT22;30219;50.588;9.504;2022-10-16T07:09:52;15.00;99.90
44513;DHT22;30219;50.588;9.504;2022-10-16T07:12:18;15.00;99.90
44513;DHT22;30219;50.588;9.504;2022-10-16T07:14:43;14.90;99.90
44513;DHT22;30219;50.588;9.504;2022-10-16T07:17:09;15.00;99.90
44513;DHT22;30219;50.588;9.504;2022-10-16T07:19:34;15.10;99.90
44513;DHT22;30219;50.588;9.504;2022-10-16T07:22:00;15.10;99.90
44513;DHT22;30219;50.588;9.504;2022-10-16T07:24:26;15.20;99.90
44513;DHT22;30219;50.588;9.504;2022-10-16T07:26:52;15.10;99.90
44513;DHT22;30219;50.588;9.504;2022-10-16T07:29:20;15.10;99.90
44513;DHT22;30219;50.588;9.504;2022-10-16T07:31:46;15.20;99.90
44513;DHT22;30219;50.588;9.504;2022-10-16T07:34:14;15.20;99.90
44513;DHT22;30219;50.588;9.504;2022-10-16T07:36:40;15.20;99.90
44513;DHT22;30219;50.588;9.504;2022-10-16T07:39:06;15.20;99.90
44513;DHT22;30219;50.588;9.504;2022-10-16T07:41:31;15.20;99.90
44513;DHT22;30219;50.588;9.504;2022-10-16T07:43:58;15.30;99.90
44513;DHT22;30219;50.588;9.504;2022-10-16T07:46:26;15.30;99.90
44513;DHT22;30219;50.588;9.504;2022-10-16T07:48:52;15.20;99.90
44513;DHT22;30219;50.588;9.504;2022-10-16T07:51:20;15.30;99.90
44513;DHT22;30219;50.588;9.504;2022-10-16T07:53:46;15.40;99.90
44513;DHT22;30219;50.588;9.504;2022-10-16T07:56:12;15.50;99.90
44513;DHT22;30219;50.588;9.504;2022-10-16T07:58:38;15.50;99.90
44513;DHT22;30219;50.588;9.504;2022-10-16T08:01:06;15.60;99.90
44513;DHT22;30219;50.588;9.504;2022-10-16T08:03:32;15.50;99.90
44513;DHT22;30219;50.588;9.504;2022-10-16T08:05:58;15.50;99.90
44513;DHT22;30219;50.588;9.504;2022-10-16T08:08:24;15.50;99.90
44513;DHT22;30219;50.588;9.504;2022-10-16T08:10:49;15.60;99.90
44513;DHT22;30219;50.588;9.504;2022-10-16T08:13:15;15.70;99.90
44513;DHT22;30219;50.588;9.504;2022-10-16T08:15:42;15.80;99.90
44513;DHT22;30219;50.588;9.504;2022-10-16T08:18:09;15.80;99.90
44513;DHT22;30219;50.588;9.504;2022-10-16T08:20:34;15.80;99.90
44513;DHT22;30219;50.588;9.504;2022-10-16T08:23:01;15.90;99.90
44513;DHT22;30219;50.588;9.504;2022-10-16T08:25:26;16.00;99.90
44513;DHT22;30219;50.588;9.504;2022-10-16T08:27:52;16.00;99.90
44513;DHT22;30219;50.588;9.504;2022-10-16T08:30:19;16.00;99.90
44513;DHT22;30219;50.588;9.504;2022-10-16T08:32:45;16.10;99.90
44513;DHT22;30219;50.588;9.504;2022-10-16T08:35:12;16.10;99.90
44513;DHT22;30219;50.588;9.504;2022-10-16T08:37:38;16.10;99.90
44513;DHT22;30219;50.588;9.504;2022-10-16T08:40:05;15.90;99.90
44513;DHT22;30219;50.588;9.504;2022-10-16T08:48:17;16.00;99.90
44513;DHT22;30219;50.588;9.504;2022-10-16T08:50:44;16.00;99.90
44513;DHT22;30219;50.588;9.504;2022-10-16T08:53:26;16.10;99.90
44513;DHT22;30219;50.588;9.504;2022-10-16T08:55:53;16.20;99.90
44513;DHT22;30219;50.588;9.504;2022-10-16T08:58:21;16.20;99.90
44513;DHT22;30219;50.588;9.504;2022-10-16T09:00:51;16.30;99.90
44513;DHT22;30219;50.588;9.504;2022-10-16T09:12:04;16.30;99.90
44513;DHT22;30219;50.588;9.504;2022-10-16T09:17:37;16.20;99.90
44513;DHT22;30219;50.588;9.504;2022-10-16T09:22:33;16.10;99.90
44513;DHT22;30219;50.588;9.504;2022-10-16T09:25:11;16.10;99.90
44513;DHT22;30219;50.588;9.504;2022-10-16T09:27:37;16.10;99.90
44513;DHT22;30219;50.588;9.504;2022-10-16T09:30:12;16.20;99.90
44513;DHT22;30219;50.588;9.504;2022-10-16T09:32:39;16.20;99.90
44513;DHT22;30219;50.588;9.504;2022-10-16T09:35:15;16.20;99.90
44513;DHT22;30219;50.588;9.504;2022-10-16T09:37:43;16.30;99.90
44513;DHT22;30219;50.588;9.504;2022-10-16T09:40:24;16.40;99.90
44513;DHT22;30219;50.588;9.504;2022-10-16T09:42:56;16.40;99.90
44513;DHT22;30219;50.588;9.504;2022-10-16T09:45:23;16.50;99.90
44513;DHT22;30219;50.588;9.504;2022-10-16T09:47:49;16.50;99.90
44513;DHT22;30219;50.588;9.504;2022-10-16T09:50:26;16.40;99.90
44513;DHT22;30219;50.588;9.504;2022-10-16T09:53:12;16.40;99.90
44513;DHT22;30219;50.588;9.504;2022-10-16T09:55:49;16.60;99.90
44513;DHT22;30219;50.588;9.504;2022-10-16T09:58:15;16.70;99.90
44513;DHT22;30219;50.588;9.504;2022-10-16T10:00:42;16.70;99.90
44513;DHT22;30219;50.588;9.504;2022-10-16T10:03:36;16.70;99.90
44513;DHT22;30219;50.588;9.504;2022-10-16T10:06:16;16.70;99.90
44513;DHT22;30219;50.588;9.504;2022-10-16T10:08:53;16.70;99.90
44513;DHT22;30219;50.588;9.504;2022-10-16T10:11:37;16.80;99.90
44513;DHT22;30219;50.588;9.504;2022-10-16T10:14:18;17.00;99.90
44513;DHT22;30219;50.588;9.504;2022-10-16T10:16:44;17.00;99.90
44513;DHT22;30219;50.588;9.504;2022-10-16T10:19:21;17.00;99.90
44513;DHT22;30219;50.588;9.504;2022-10-16T10:21:48;17.10;99.90
44513;DHT22;30219;50.588;9.504;2022-10-16T10:24:16;17.00;99.90
44513;DHT22;30219;50.588;9.504;2022-10-16T10:29:50;17.10;99.90
44513;DHT22;30219;50.588;9.504;2022-10-16T10:35:07;17.10;99.90
44513;DHT22;30219;50.588;9.504;2022-10-16T10:43:54;17.10;99.90
44513;DHT22;30219;50.588;9.504;2022-10-16T10:46:36;17.20;99.90
44513;DHT22;30219;50.588;9.504;2022-10-16T10:55:09;17.10;99.90
44513;DHT22;30219;50.588;9.504;2022-10-16T11:00:30;17.00;99.90
44513;DHT22;30219;50.588;9.504;2022-10-16T11:05:58;17.10;99.90
44513;DHT22;30219;50.588;9.504;2022-10-16T11:08:33;17.20;99.90
44513;DHT22;30219;50.588;9.504;2022-10-16T11:11:14;17.30;99.90
44513;DHT22;30219;50.588;9.504;2022-10-16T11:16:21;17.50;99.90
44513;DHT22;30219;50.588;9.504;2022-10-16T11:18:49;17.50;99.90
44513;DHT22;30219;50.588;9.504;2022-10-16T11:21:19;17.40;99.90
44513;DHT22;30219;50.588;9.504;2022-10-16T11:26:23;17.50;99.90
44513;DHT22;30219;50.588;9.504;2022-10-16T11:28:52;17.50;99.90
44513;DHT22;30219;50.588;9.504;2022-10-16T11:31:41;17.50;99.90
44513;DHT22;30219;50.588;9.504;2022-10-16T11:34:39;17.40;99.90
44513;DHT22;30219;50.588;9.504;2022-10-16T11:37:35;17.40;99.90
44513;DHT22;30219;50.588;9.504;2022-10-16T11:40:32;17.40;99.90
44513;DHT22;30219;50.588;9.504;2022-10-16T11:43:17;17.30;99.90
44513;DHT22;30219;50.588;9.504;2022-10-16T11:45:57;17.40;99.90
44513;DHT22;30219;50.588;9.504;2022-10-16T11:51:16;17.50;99.90
44513;DHT22;30219;50.588;9.504;2022-10-16T11:53:53;17.60;99.90
44513;DHT22;30219;50.588;9.504;2022-10-16T11:56:22;17.60;99.90
44513;DHT22;30219;50.588;9.504;2022-10-16T11:59:03;17.60;99.90
44513;DHT22;30219;50.588;9.504;2022-10-16T12:01:33;17.50;99.90
44513;DHT22;30219;50.588;9.504;2022-10-16T12:04:17;17.40;99.90
44513;DHT22;30219;50.588;9.504;2022-10-16T12:07:02;17.30;99.90
44513;DHT22;30219;50.588;9.504;2022-10-16T12:09:31;17.40;99.90
44513;DHT22;30219;50.588;9.504;2022-10-16T12:11:57;17.40;99.90
44513;DHT22;30219;50.588;9.504;2022-10-16T12:14:38;17.40;99.90
44513;DHT22;30219;50.588;9.504;2022-10-16T12:17:24;17.40;99.90
44513;DHT22;30219;50.588;9.504;2022-10-16T12:20:22;17.40;99.90
44513;DHT22;30219;50.588;9.504;2022-10-16T12:22:57;17.40;99.90
44513;DHT22;30219;50.588;9.504;2022-10-16T12:25:33;17.40;99.90
44513;DHT22;30219;50.588;9.504;2022-10-16T12:28:27;17.40;99.90
44513;DHT22;30219;50.588;9.504;2022-10-16T12:30:58;17.30;99.90
44513;DHT22;30219;50.588;9.504;2022-10-16T12:33:29;17.30;99.90
44513;DHT22;30219;50.588;9.504;2022-10-16T12:35:58;17.20;99.90
44513;DHT22;30219;50.588;9.504;2022-10-16T12:38:29;17.20;99.90
44513;DHT22;30219;50.588;9.504;2022-10-16T12:41:32;17.20;99.90
44513;DHT22;30219;50.588;9.504;2022-10-16T12:43:59;17.10;99.90
44513;DHT22;30219;50.588;9.504;2022-10-16T12:51:40;17.10;99.90
44513;DHT22;30219;50.588;9.504;2022-10-16T12:54:24;17.20;99.90
44513;DHT22;30219;50.588;9.504;2022-10-16T13:00:04;17.10;99.90
44513;DHT22;30219;50.588;9.504;2022-10-16T13:11:24;17.30;99.90
44513;DHT22;30219;50.588;9.504;2022-10-16T13:25:05;17.80;99.90
44513;DHT22;30219;50.588;9.504;2022-10-16T13:27:45;17.90;99.90
44513;DHT22;30219;50.588;9.504;2022-10-16T13:30:28;18.00;99.90
44513;DHT22;30219;50.588;9.504;2022-10-16T13:33:02;18.10;99.90
44513;DHT22;30219;50.588;9.504;2022-10-16T13:35:32;18.10;99.90
44513;DHT22;30219;50.588;9.504;2022-10-16T13:38:18;18.20;99.90
44513;DHT22;30219;50.588;9.504;2022-10-16T13:43:33;18.20;99.90
44513;DHT22;30219;50.588;9.504;2022-10-16T13:46:10;18.00;99.90
44513;DHT22;30219;50.588;9.504;2022-10-16T13:48:37;17.90;99.90
44513;DHT22;30219;50.588;9.504;2022-10-16T13:51:13;17.90;99.90
44513;DHT22;30219;50.588;9.504;2022-10-16T13:53:39;18.10;99.90
44513;DHT22;30219;50.588;9.504;2022-10-16T13:56:11;18.30;99.90
44513;DHT22;30219;50.588;9.504;2022-10-16T13:58:37;18.50;99.90
44513;DHT22;30219;50.588;9.504;2022-10-16T14:01:05;18.50;99.90
44513;DHT22;30219;50.588;9.504;2022-10-16T14:03:32;18.40;99.90
44513;DHT22;30219;50.588;9.504;2022-10-16T14:06:04;18.40;99.90
44513;DHT22;30219;50.588;9.504;2022-10-16T14:08:31;18.50;99.90
44513;DHT22;30219;50.588;9.504;2022-10-16T14:10:59;18.60;99.90
44513;DHT22;30219;50.588;9.504;2022-10-16T14:13:42;18.60;99.90
44513;DHT22;30219;50.588;9.504;2022-10-16T14:16:15;18.80;99.90
44513;DHT22;30219;50.588;9.504;2022-10-16T14:18:46;18.80;99.90
44513;DHT22;30219;50.588;9.504;2022-10-16T14:21:16;18.90;99.90
44513;DHT22;30219;50.588;9.504;2022-10-16T14:23:42;19.10;99.90
44513;DHT22;30219;50.588;9.504;2022-10-16T14:28:33;19.00;99.90
44513;DHT22;30219;50.588;9.504;2022-10-16T14:31:01;19.00;99.90
44513;DHT22;30219;50.588;9.504;2022-10-16T14:33:31;18.90;99.90
44513;DHT22;30219;50.588;9.504;2022-10-16T14:38:34;18.80;99.90
44513;DHT22;30219;50.588;9.504;2022-10-16T14:41:00;18.90;99.90
44513;DHT22;30219;50.588;9.504;2022-10-16T14:43:34;18.90;99.90
44513;DHT22;30219;50.588;9.504;2022-10-16T14:46:11;18.80;99.90
44513;DHT22;30219;50.588;9.504;2022-10-16T14:48:41;18.70;99.90
44513;DHT22;30219;50.588;9.504;2022-10-16T14:51:14;18.60;99.90
44513;DHT22;30219;50.588;9.504;2022-10-16T14:53:40;18.60;99.90
44513;DHT22;30219;50.588;9.504;2022-10-16T14:56:16;18.60;99.90
44513;DHT22;30219;50.588;9.504;2022-10-16T14:58:42;18.60;99.90
44513;DHT22;30219;50.588;9.504;2022-10-16T15:01:09;18.60;99.90
44513;DHT22;30219;50.588;9.504;2022-10-16T15:03:36;18.50;99.90
44513;DHT22;30219;50.588;9.504;2022-10-16T15:06:01;18.40;99.90
44513;DHT22;30219;50.588;9.504;2022-10-16T15:08:27;18.30;99.90
44513;DHT22;30219;50.588;9.504;2022-10-16T15:10:53;18.30;99.90
44513;DHT22;30219;50.588;9.504;2022-10-16T15:13:18;18.30;99.90
44513;DHT22;30219;50.588;9.504;2022-10-16T15:15:45;18.20;99.90
44513;DHT22;30219;50.588;9.504;2022-10-16T15:18:11;18.10;99.90
44513;DHT22;30219;50.588;9.504;2022-10-16T15:20:38;18.10;99.90
44513;DHT22;30219;50.588;9.504;2022-10-16T15:23:09;18.10;99.90
44513;DHT22;30219;50.588;9.504;2022-10-16T15:25:47;18.10;99.90
44513;DHT22;30219;50.588;9.504;2022-10-16T15:28:14;18.00;99.90
44513;DHT22;30219;50.588;9.504;2022-10-16T15:30:41;17.90;99.90
44513;DHT22;30219;50.588;9.504;2022-10-16T15:33:27;17.90;99.90
44513;DHT22;30219;50.588;9.504;2022-10-16T15:35:57;18.00;99.90
44513;DHT22;30219;50.588;9.504;2022-10-16T15:38:23;18.00;99.90
44513;DHT22;30219;50.588;9.504;2022-10-16T15:40:49;18.00;99.90
44513;DHT22;30219;50.588;9.504;2022-10-16T15:43:14;18.00;99.90
44513;DHT22;30219;50.588;9.504;2022-10-16T15:45:40;18.00;99.90
44513;DHT22;30219;50.588;9.504;2022-10-16T15:48:06;18.00;99.90
44513;DHT22;30219;50.588;9.504;2022-10-16T15:50:32;17.90;99.90
44513;DHT22;30219;50.588;9.504;2022-10-16T15:52:58;17.80;99.90
44513;DHT22;30219;50.588;9.504;2022-10-16T15:55:24;17.80;99.90
44513;DHT22;30219;50.588;9.504;2022-10-16T15:57:49;17.70;99.90
44513;DHT22;30219;50.588;9.504;2022-10-16T16:00:17;17.80;99.90
44513;DHT22;30219;50.588;9.504;2022-10-16T16:02:45;17.80;99.90
44513;DHT22;30219;50.588;9.504;2022-10-16T16:05:14;17.70;99.90
44513;DHT22;30219;50.588;9.504;2022-10-16T16:07:40;17.50;99.90
44513;DHT22;30219;50.588;9.504;2022-10-16T16:10:07;17.40;99.90
44513;DHT22;30219;50.588;9.504;2022-10-16T16:12:34;17.30;99.90
44513;DHT22;30219;50.588;9.504;2022-10-16T16:14:59;17.30;99.90
44513;DHT22;30219;50.588;9.504;2022-10-16T16:17:25;17.20;99.90
44513;DHT22;30219;50.588;9.504;2022-10-16T16:19:51;17.10;99.90
44513;DHT22;30219;50.588;9.504;2022-10-16T16:22:17;17.00;99.90
44513;DHT22;30219;50.588;9.504;2022-10-16T16:24:42;17.00;99.90
44513;DHT22;30219;50.588;9.504;2022-10-16T16:27:08;16.90;99.90
44513;DHT22;30219;50.588;9.504;2022-10-16T16:29:34;16.90;99.90
44513;DHT22;30219;50.588;9.504;2022-10-16T16:32:00;16.70;99.90
44513;DHT22;30219;50.588;9.504;2022-10-16T16:34:27;16.70;99.90
44513;DHT22;30219;50.588;9.504;2022-10-16T16:36:54;16.60;99.90
44513;DHT22;30219;50.588;9.504;2022-10-16T16:39:19;16.70;99.90
44513;DHT22;30219;50.588;9.504;2022-10-16T16:41:45;16.80;99.90
44513;DHT22;30219;50.588;9.504;2022-10-16T16:44:12;16.70;99.90
44513;DHT22;30219;50.588;9.504;2022-10-16T16:46:37;16.70;99.90
44513;DHT22;30219;50.588;9.504;2022-10-16T16:49:05;16.70;99.90
44513;DHT22;30219;50.588;9.504;2022-10-16T16:51:31;16.70;99.90
44513;DHT22;30219;50.588;9.504;2022-10-16T16:53:57;16.70;99.90
44513;DHT22;30219;50.588;9.504;2022-10-16T16:56:24;16.70;99.90
44513;DHT22;30219;50.588;9.504;2022-10-16T16:58:51;16.80;99.90
44513;DHT22;30219;50.588;9.504;2022-10-16T17:01:17;16.80;99.90
44513;DHT22;30219;50.588;9.504;2022-10-16T17:03:44;16.80;99.90
44513;DHT22;30219;50.588;9.504;2022-10-16T17:06:11;16.80;99.90
44513;DHT22;30219;50.588;9.504;2022-10-16T17:08:38;16.80;99.90
44513;DHT22;30219;50.588;9.504;2022-10-16T17:11:05;16.70;99.90
44513;DHT22;30219;50.588;9.504;2022-10-16T17:13:33;16.70;99.90
44513;DHT22;30219;50.588;9.504;2022-10-16T17:16:04;16.50;99.90
44513;DHT22;30219;50.588;9.504;2022-10-16T17:18:31;16.50;99.90
44513;DHT22;30219;50.588;9.504;2022-10-16T17:21:01;16.40;99.90
44513;DHT22;30219;50.588;9.504;2022-10-16T17:23:27;16.40;99.90
44513;DHT22;30219;50.588;9.504;2022-10-16T17:25:53;16.40;99.90